Time;durP1;ratioP1;P1;durP2;ratioP2;P2;SDS_P1;SDS_P2;PMS_P1;PMS_P2;Temp;Humidity;BMP_temperature;BMP_pressure;BME280_temperature;BME280_humidity;BME280_pressure;Samples;Min_cycle;Max_cycle;Signal;HPM_P1;HPM_P2
2022/09/20 00:01:49;;;;;;;3.70;1.10;;;13.30;99.90;;;13.38;100.00;101594.44;5123254;28;20057;-71
2022/09/20 00:04:23;;;;;;;1.17;0.70;;;13.30;99.90;;;13.39;100.00;101595.31;5123085;28;20047;-72
2022/09/20 00:06:55;;;;;;;2.40;1.10;;;13.30;99.90;;;13.39;100.00;101600.56;5123153;28;20047;-71
2022/09/20 00:09:27;;;;;;;0.80;0.80;;;13.20;99.90;;;13.36;100.00;101587.34;5122476;28;20496;-71
2022/09/20 00:11:59;;;;;;;3.35;1.00;;;13.20;99.90;;;13.33;100.00;101588.13;5121759;29;20142;-71
2022/09/20 00:14:31;;;;;;;2.05;1.10;;;13.30;99.90;;;13.33;100.00;101587.25;5123006;28;20035;-71
2022/09/20 00:17:03;;;;;;;1.23;0.90;;;13.20;99.90;;;13.30;100.00;101578.44;5123011;28;20043;-70
2022/09/20 00:19:37;;;;;;;3.85;0.90;;;13.20;99.90;;;13.27;100.00;101580.03;5122437;28;20053;-71
2022/09/20 00:22:09;;;;;;;2.40;0.85;;;13.20;99.90;;;13.26;100.00;101579.16;5126715;28;20154;-71
2022/09/20 00:24:41;;;;;;;2.38;0.90;;;13.20;99.90;;;13.24;100.00;101583.47;5125268;29;20047;-70
2022/09/20 00:27:14;;;;;;;1.15;0.77;;;13.10;99.90;;;13.20;100.00;101585.88;5126707;28;20040;-72
2022/09/20 00:29:46;;;;;;;1.88;0.82;;;13.10;99.90;;;13.16;100.00;101584.84;5124632;29;20058;-71
2022/09/20 00:32:18;;;;;;;0.90;0.68;;;13.10;99.90;;;13.13;100.00;101587.38;5124990;29;20066;-70
2022/09/20 00:35:09;;;;;;;2.60;0.95;;;13.00;99.90;;;13.11;100.00;101586.44;5126240;28;20078;-71
2022/09/20 00:37:43;;;;;;;1.35;1.00;;;13.00;99.90;;;13.07;100.00;101587.13;5124926;29;20051;-72
2022/09/20 00:40:20;;;;;;;1.80;0.88;;;13.00;99.90;;;13.08;100.00;101591.53;5125706;28;20649;-71
2022/09/20 00:42:52;;;;;;;0.73;0.70;;;13.00;99.90;;;13.05;100.00;101596.66;5126197;28;20054;-71
2022/09/20 00:45:26;;;;;;;2.95;0.93;;;13.00;99.90;;;13.03;100.00;101591.34;5126089;28;20523;-70
2022/09/20 00:48:04;;;;;;;1.20;0.52;;;12.90;99.90;;;13.03;100.00;101601.81;5126214;28;20040;-70
2022/09/20 00:50:41;;;;;;;1.55;0.93;;;12.90;99.90;;;13.04;100.00;101602.75;5125435;28;20053;-71
2022/09/20 00:53:19;;;;;;;2.05;1.10;;;12.90;99.90;;;13.06;100.00;101601.06;5126182;28;20039;-70
2022/09/20 00:55:55;;;;;;;1.55;0.80;;;12.90;99.90;;;13.08;100.00;101594.16;5126117;28;20070;-71
2022/09/20 00:58:30;;;;;;;1.83;1.10;;;13.00;99.90;;;13.10;100.00;101596.81;5125657;28;20411;-71
2022/09/20 01:01:04;;;;;;;1.90;0.95;;;13.00;99.90;;;13.12;100.00;101592.56;5125742;28;20078;-71
2022/09/20 01:03:40;;;;;;;1.88;1.00;;;13.00;99.90;;;13.13;100.00;101589.97;5125482;28;20043;-71
2022/09/20 01:06:16;;;;;;;2.95;1.00;;;13.00;99.90;;;13.17;100.00;101585.72;5125582;28;20051;-70
2022/09/20 01:08:51;;;;;;;2.00;1.00;;;13.10;99.90;;;13.18;100.00;101583.19;5124047;29;20086;-70
2022/09/20 01:11:23;;;;;;;1.77;1.13;;;13.00;99.90;;;13.19;100.00;101578.84;5125561;28;20134;-71
2022/09/20 01:13:56;;;;;;;2.35;1.10;;;13.10;99.90;;;13.19;100.00;101579.75;5125534;28;20522;-70
2022/09/20 01:16:29;;;;;;;2.35;0.95;;;13.10;99.90;;;13.21;100.00;101588.56;5125579;28;20094;-70
2022/09/20 01:19:10;;;;;;;1.60;1.02;;;13.10;99.90;;;13.22;100.00;101590.34;5125185;28;20043;-70
2022/09/20 01:21:45;;;;;;;3.20;1.10;;;13.10;99.90;;;13.22;100.00;101599.94;5125349;28;20043;-70
2022/09/20 01:24:24;;;;;;;2.60;1.15;;;13.10;99.90;;;13.22;100.00;101594.69;5125408;28;20047;-70
2022/09/20 01:27:14;;;;;;;2.97;1.13;;;13.10;99.90;;;13.23;100.00;101591.22;5125273;28;20496;-70
2022/09/20 01:30:02;;;;;;;2.08;1.05;;;13.10;99.90;;;13.22;100.00;101595.56;5124832;28;20130;-70
2022/09/20 01:32:49;;;;;;;2.00;1.10;;;13.10;99.90;;;13.21;100.00;101593.81;5124033;28;20126;-70
2022/09/20 01:35:25;;;;;;;2.50;1.10;;;13.10;99.90;;;13.20;100.00;101594.66;5125390;28;20053;-70
2022/09/20 01:38:13;;;;;;;1.73;0.90;;;13.10;99.90;;;13.19;100.00;101600.69;5123497;29;20050;-70
2022/09/20 01:40:56;;;;;;;2.25;0.95;;;13.10;99.90;;;13.20;100.00;101592.03;5123465;29;20106;-73
2022/09/20 01:43:35;;;;;;;1.88;1.13;;;13.10;99.90;;;13.20;100.00;101597.25;5124967;28;20050;-71
2022/09/20 01:46:24;;;;;;;3.25;1.10;;;13.10;99.90;;;13.19;100.00;101595.44;5125066;28;20472;-70
2022/09/20 01:49:10;;;;;;;1.77;0.98;;;13.10;99.90;;;13.20;100.00;101601.56;5124582;28;20512;-71
2022/09/20 01:52:36;;;;;;;3.88;1.20;;;13.10;99.90;;;13.22;100.00;101594.69;5124942;28;20047;-71
2022/09/20 01:55:42;;;;;;;2.95;1.02;;;13.10;99.90;;;13.22;100.00;101605.16;5124882;28;20047;-71
2022/09/20 01:59:08;;;;;;;3.08;1.08;;;13.10;99.90;;;13.20;100.00;101597.25;5124882;28;20071;-70
2022/09/20 02:02:09;;;;;;;2.85;1.13;;;13.10;99.90;;;13.20;100.00;101610.34;5063357;29;20048;-71
2022/09/20 02:05:04;;;;;;;;;;;13.20;99.90;;;13.20;100.00;101602.50;5038638;29;20095;-70
2022/09/20 02:08:08;;;;;;;3.38;1.10;;;13.20;99.90;;;13.20;100.00;101605.13;5124543;28;20306;-72
2022/09/20 02:11:06;;;;;;;2.65;1.00;;;13.10;99.90;;;13.23;100.00;101604.31;5123906;28;20416;-70
2022/09/20 02:14:14;;;;;;;2.00;1.00;;;13.20;99.90;;;13.21;100.00;101596.41;5123116;29;20114;-71
2022/09/20 02:16:54;;;;;;;1.20;0.73;;;13.10;99.90;;;13.23;100.00;101601.69;5122295;28;20147;-70
2022/09/20 02:20:11;;;;;;;2.90;1.30;;;13.20;99.90;;;13.22;100.00;101595.56;5123803;28;20055;-71
2022/09/20 02:23:09;;;;;;;3.53;1.10;;;13.20;99.90;;;13.23;100.00;101602.59;5124201;28;20047;-71
2022/09/20 02:26:05;;;;;;;1.98;0.85;;;13.20;99.90;;;13.23;100.00;101606.94;5124226;28;20043;-71
2022/09/20 02:28:54;;;;;;;1.25;0.90;;;13.20;99.90;;;13.22;100.00;101599.94;5123815;28;20496;-71
2022/09/20 02:31:55;;;;;;;1.10;0.90;;;13.20;99.90;;;13.20;100.00;101589.41;5124147;28;20043;-71
2022/09/20 02:34:52;;;;;;;2.60;1.23;;;13.10;99.90;;;13.19;100.00;101594.56;5124188;28;20043;-71
2022/09/20 02:37:55;;;;;;;3.30;1.40;;;13.20;99.90;;;13.20;100.00;101596.34;5123924;28;20369;-71
2022/09/20 02:40:59;;;;;;;2.25;1.00;;;13.20;99.90;;;13.19;100.00;101590.22;5116346;29;20055;-71
2022/09/20 02:43:40;;;;;;;2.30;0.88;;;13.10;99.90;;;13.21;100.00;101595.53;5120518;28;20441;-70
2022/09/20 02:46:20;;;;;;;3.63;1.23;;;13.10;99.90;;;13.19;100.00;101595.44;5124101;28;20523;-71
2022/09/20 02:49:04;;;;;;;2.50;1.13;;;13.10;99.90;;;13.18;100.00;101592.78;5123581;28;20043;-71
2022/09/20 02:51:41;;;;;;;2.13;1.30;;;13.10;99.90;;;13.15;100.00;101593.53;5123876;28;20537;-72
2022/09/20 02:54:35;;;;;;;3.40;1.25;;;13.10;99.90;;;13.15;100.00;101585.69;5123785;28;20047;-71
2022/09/20 02:57:14;;;;;;;;;;;13.10;99.90;;;13.12;100.00;101582.97;5124327;28;20046;-71
2022/09/20 02:59:53;;;;;;;2.10;1.20;;;13.10;99.90;;;13.16;100.00;101589.19;5123091;28;19969;-71
2022/09/20 03:02:30;;;;;;;4.00;1.63;;;13.10;99.90;;;13.16;100.00;101579.59;5123489;28;20051;-71
2022/09/20 03:05:13;;;;;;;3.70;1.45;;;13.10;99.90;;;13.15;100.00;101585.69;5123723;28;20123;-71
2022/09/20 03:08:07;;;;;;;5.55;1.35;;;13.10;99.90;;;13.15;100.00;101583.06;5122457;29;20051;-70
2022/09/20 03:10:50;;;;;;;2.70;1.10;;;13.10;99.90;;;13.16;100.00;101578.72;5122768;28;20039;-71
2022/09/20 03:13:35;;;;;;;2.60;1.25;;;13.10;99.90;;;13.17;100.00;101586.66;5123746;28;20123;-70
2022/09/20 03:16:16;;;;;;;4.22;1.40;;;13.10;99.90;;;13.18;100.00;101580.59;5123541;28;20404;-70
2022/09/20 03:18:57;;;;;;;;;;;13.10;99.90;;;13.19;100.00;101589.31;5123442;28;20671;-70
2022/09/20 03:21:52;;;;;;;2.83;1.13;;;13.10;99.90;;;13.17;100.00;101578.81;5122186;29;19922;-70
2022/09/20 03:24:37;;;;;;;3.03;1.10;;;13.10;99.90;;;13.17;100.00;101581.41;5123596;28;20066;-71
2022/09/20 03:27:22;;;;;;;2.65;0.95;;;13.10;99.90;;;13.14;100.00;101581.28;5123269;28;20691;-71
2022/09/20 03:30:18;;;;;;;4.25;1.40;;;13.10;99.90;;;13.12;100.00;101582.09;5122778;28;20606;-71
2022/09/20 03:33:03;;;;;;;2.45;1.33;;;13.10;99.90;;;13.11;100.00;101583.81;5123455;28;20050;-71
2022/09/20 03:36:01;;;;;;;4.03;1.20;;;13.10;99.90;;;13.10;100.00;101588.97;5123322;28;20051;-71
2022/09/20 03:39:02;;;;;;;2.10;1.20;;;13.00;99.90;;;13.10;100.00;101592.47;5122923;28;20044;-71
2022/09/20 03:42:03;;;;;;;3.15;1.13;;;13.00;99.90;;;13.10;100.00;101587.22;5122014;29;20051;-70
2022/09/20 03:44:56;;;;;;;2.08;1.15;;;13.00;99.90;;;13.08;100.00;101591.53;5123293;28;20155;-72
2022/09/20 03:48:04;;;;;;;3.13;1.63;;;13.00;99.90;;;13.06;100.00;101584.47;5122179;29;20518;-70
2022/09/20 03:50:53;;;;;;;2.42;1.10;;;13.00;99.90;;;13.04;100.00;101582.69;5122652;28;20448;-71
2022/09/20 03:54:16;;;;;;;2.58;1.10;;;13.00;99.90;;;13.04;100.00;101587.03;5123628;28;20051;-71
2022/09/20 03:57:27;;;;;;;2.88;1.20;;;13.00;99.90;;;13.06;100.00;101584.47;5126989;28;20051;-71
2022/09/20 04:00:23;;;;;;;1.73;0.98;;;12.90;99.90;;;13.06;100.00;101579.22;5126331;28;20047;-71
2022/09/20 04:03:22;;;;;;;2.67;1.20;;;13.00;99.90;;;13.05;100.00;101586.19;5127256;28;20073;-70
2022/09/20 04:06:13;;;;;;;2.42;1.13;;;13.00;99.90;;;13.04;100.00;101587.03;5126998;28;20051;-70
2022/09/20 04:09:25;;;;;;;1.90;1.00;;;13.00;99.90;;;13.03;100.00;101578.25;5126392;28;20448;-70
2022/09/20 04:12:08;;;;;;;3.03;1.15;;;12.90;99.90;;;13.03;100.00;101574.75;5145821;23;20415;-70
2022/09/20 04:14:49;;;;;;;2.22;1.05;;;12.90;99.90;;;13.02;100.00;101580.84;5171418;28;20189;-70
2022/09/20 04:17:39;;;;;;;3.35;1.30;;;12.90;99.90;;;13.00;100.00;101582.50;5166868;28;20122;-71
2022/09/20 04:20:20;;;;;;;2.72;1.25;;;12.90;99.90;;;13.02;100.00;101586.06;5160486;28;20529;-70
2022/09/20 04:22:56;;;;;;;2.58;1.30;;;12.90;99.90;;;12.99;100.00;101588.59;5139267;28;20047;-70
2022/09/20 04:25:37;;;;;;;1.63;0.93;;;12.90;99.90;;;12.98;100.00;101592.03;5126588;28;20381;-70
2022/09/20 04:28:16;;;;;;;3.03;1.40;;;12.90;99.90;;;12.96;100.00;101585.84;5125569;28;20039;-70
2022/09/20 04:30:49;;;;;;;3.13;1.15;;;12.90;99.90;;;12.95;100.00;101586.66;5126767;28;20140;-70
2022/09/20 04:33:27;;;;;;;3.42;1.20;;;12.90;99.90;;;12.95;100.00;101594.53;5126431;28;20063;-70
2022/09/20 04:36:30;;;;;;;1.73;1.33;;;12.80;99.90;;;12.93;100.00;101591.84;5126707;28;20050;-70
2022/09/20 04:39:19;;;;;;;3.10;1.23;;;12.80;99.90;;;12.93;100.00;101590.97;5140886;28;20101;-70
2022/09/20 04:42:35;;;;;;;2.08;1.40;;;12.80;99.90;;;12.93;100.00;101593.59;5126357;28;20138;-70
2022/09/20 04:46:01;;;;;;;1.65;1.13;;;12.80;99.90;;;12.93;100.00;101596.19;5065907;28;20075;-70
2022/09/20 04:49:38;;;;;;;2.13;1.20;;;12.80;99.90;;;12.92;100.00;101599.66;5125936;28;20118;-70
2022/09/20 04:52:59;;;;;;;3.10;1.15;;;12.80;99.90;;;12.90;100.00;101599.56;5126123;28;20504;-70
2022/09/20 04:55:49;;;;;;;2.85;1.50;;;12.80;99.90;;;12.89;100.00;101599.53;5105364;29;20394;-70
2022/09/20 04:58:45;;;;;;;3.13;1.58;;;12.80;99.90;;;12.88;100.00;101597.75;5105375;29;20278;-70
2022/09/20 05:02:11;;;;;;;1.58;1.08;;;12.80;99.90;;;12.87;100.00;101603.81;5107670;29;20138;-70
2022/09/20 05:05:40;;;;;;;2.47;1.15;;;12.80;99.90;;;12.87;100.00;101611.66;5125075;28;20047;-70
2022/09/20 05:09:02;;;;;;;2.38;1.25;;;12.80;99.90;;;12.86;100.00;101618.63;5104251;29;20051;-70
2022/09/20 05:12:02;;;;;;;2.55;1.10;;;12.80;99.90;;;12.86;100.00;101615.13;5105609;29;20142;-70
2022/09/20 05:15:11;;;;;;;2.03;1.23;;;12.80;99.90;;;12.85;100.00;101616.84;5105217;29;20039;-70
2022/09/20 05:18:25;;;;;;;2.05;1.10;;;12.80;99.90;;;12.86;100.00;101620.34;5104429;29;20051;-69
2022/09/20 05:21:23;;;;;;;1.58;1.17;;;12.80;99.90;;;12.87;100.00;101627.38;5107837;28;20055;-71
2022/09/20 05:24:08;;;;;;;4.03;1.20;;;12.80;99.90;;;12.90;100.00;101630.09;5123936;28;20047;-70
2022/09/20 05:26:54;;;;;;;4.10;1.30;;;12.80;99.90;;;12.91;100.00;101629.25;5121108;28;20416;-71
2022/09/20 05:29:35;;;;;;;1.88;0.95;;;12.80;99.90;;;12.92;100.00;101631.06;5113516;29;20069;-71
2022/09/20 05:32:19;;;;;;;2.20;1.35;;;12.80;99.90;;;12.93;100.00;101627.59;5105252;29;20052;-69
2022/09/20 05:34:59;;;;;;;1.95;1.15;;;12.80;99.90;;;12.95;100.00;101636.41;5103824;29;20060;-70
2022/09/20 05:37:43;;;;;;;4.70;1.40;;;12.80;99.90;;;12.94;100.00;101627.66;5118969;28;20047;-70
2022/09/20 05:40:27;;;;;;;4.18;1.58;;;12.80;99.90;;;12.92;100.00;101633.69;5118016;28;20047;-69
2022/09/20 05:43:10;;;;;;;3.38;1.10;;;12.80;99.90;;;12.94;100.00;101635.50;5108416;29;20077;-70
2022/09/20 05:46:00;;;;;;;2.28;0.98;;;12.80;99.90;;;12.95;100.00;101632.06;5109861;29;20235;-70
2022/09/20 05:48:43;;;;;;;2.20;1.05;;;12.90;99.90;;;12.97;100.00;101643.47;5111829;29;20500;-69
2022/09/20 05:51:31;;;;;;;2.78;1.38;;;12.90;99.90;;;12.99;100.00;101643.53;5121673;28;20054;-70
2022/09/20 05:54:35;;;;;;;3.95;1.30;;;12.90;99.90;;;13.04;100.00;101650.75;5105645;29;20501;-67
2022/09/20 05:57:21;;;;;;;2.40;1.02;;;12.90;99.90;;;13.05;100.00;101649.03;5119672;28;20044;-67
2022/09/20 06:00:04;;;;;;;4.03;1.40;;;12.90;99.90;;;13.09;100.00;101650.91;5104372;29;20043;-66
2022/09/20 06:02:53;;;;;;;2.50;1.17;;;13.00;99.90;;;13.11;100.00;101654.50;5117328;29;20055;-67
2022/09/20 06:05:46;;;;;;;3.33;1.08;;;13.00;99.90;;;13.13;100.00;101647.56;5123169;29;20047;-58
2022/09/20 06:08:43;;;;;;;2.97;1.20;;;13.00;99.90;;;13.17;100.00;101649.50;5124555;28;20058;-58
2022/09/20 06:11:44;;;;;;;1.58;1.08;;;13.00;99.90;;;13.22;100.00;101658.41;5124017;28;20043;-60
2022/09/20 06:14:29;;;;;;;3.67;1.10;;;13.10;99.90;;;13.23;100.00;101657.56;5124136;28;20065;-59
2022/09/20 06:17:16;;;;;;;3.80;1.15;;;13.10;99.90;;;13.27;100.00;101667.34;5124464;28;20066;-59
2022/09/20 06:20:05;;;;;;;2.95;1.00;;;13.20;99.90;;;13.33;100.00;101655.31;5123629;28;20431;-58
2022/09/20 06:22:42;;;;;;;2.80;1.30;;;13.20;99.90;;;13.35;100.00;101659.75;5108076;29;20114;-58
2022/09/20 06:25:21;;;;;;;2.83;1.02;;;13.20;99.90;;;13.36;100.00;101658.94;5103694;29;20055;-59
2022/09/20 06:28:01;;;;;;;1.77;1.05;;;13.20;99.90;;;13.39;100.00;101660.78;5107080;29;20062;-61
2022/09/20 06:30:38;;;;;;;4.57;1.40;;;13.20;99.90;;;13.38;100.00;101657.28;5122799;28;20055;-58
2022/09/20 06:33:16;;;;;;;3.95;1.30;;;13.20;99.90;;;13.41;100.00;101665.22;5123113;28;20047;-59
2022/09/20 06:35:54;;;;;;;7.22;1.63;;;13.30;99.90;;;13.39;100.00;101656.44;5123293;28;20412;-59
2022/09/20 06:41:37;;;;;;;3.08;1.73;;;13.30;99.90;;;13.48;100.00;101661.13;5109190;28;20058;-58
2022/09/20 06:44:11;;;;;;;3.75;1.80;;;13.30;99.90;;;13.53;100.00;101667.41;5121033;28;20055;-58
2022/09/20 06:46:43;;;;;;;4.90;2.00;;;13.40;99.90;;;13.53;100.00;101670.03;5123531;28;20086;-56
2022/09/20 06:49:16;;;;;;;4.28;1.77;;;13.40;99.90;;;13.54;100.00;101662.22;5123323;28;20047;-58
2022/09/20 06:51:49;;;;;;;4.53;1.73;;;13.40;99.90;;;13.55;100.00;101665.75;5123899;28;20081;-57
2022/09/20 06:54:22;;;;;;;5.88;2.30;;;13.40;99.90;;;13.59;100.00;101675.50;5122096;29;20051;-59
2022/09/20 06:56:55;;;;;;;3.50;2.03;;;13.40;99.90;;;13.61;100.00;101684.31;5119094;28;20414;-59
2022/09/20 06:59:28;;;;;;;4.88;2.33;;;13.40;99.90;;;13.64;100.00;101680.91;5121071;28;20047;-58
2022/09/20 07:02:01;;;;;;;4.65;2.20;;;13.40;99.90;;;13.67;100.00;101683.63;5123368;28;20058;-59
2022/09/20 07:04:33;;;;;;;5.93;2.30;;;13.50;99.90;;;13.67;100.00;101688.88;5106595;28;20465;-60
2022/09/20 07:07:08;;;;;;;4.22;1.95;;;13.50;99.90;;;13.64;100.00;101683.53;5103701;29;20039;-58
2022/09/20 07:09:40;;;;;;;6.57;2.85;;;13.50;99.90;;;13.62;100.00;101685.19;5103336;29;20047;-58
2022/09/20 07:12:13;;;;;;;6.13;2.15;;;13.50;99.90;;;13.63;100.00;101685.28;5103192;29;20517;-61
2022/09/20 07:14:46;;;;;;;6.03;2.33;;;13.50;99.90;;;13.81;100.00;101687.63;5103782;29;20044;-57
2022/09/20 07:17:18;;;;;;;5.30;2.30;;;13.60;99.90;;;13.98;100.00;101683.00;5112165;29;20135;-59
2022/09/20 07:19:50;;;;;;;10.82;3.20;;;13.70;99.90;;;14.11;100.00;101682.59;5123547;28;20047;-59
2022/09/20 07:22:23;;;;;;;5.60;2.28;;;13.80;99.90;;;14.26;100.00;101698.84;5123759;28;20051;-59
2022/09/20 07:24:55;;;;;;;7.07;2.42;;;14.00;99.90;;;14.56;100.00;101692.88;5123710;28;20130;-59
2022/09/20 07:27:27;;;;;;;7.93;2.60;;;14.20;99.90;;;15.02;100.00;101704.84;5119695;28;20128;-57
2022/09/20 07:30:01;;;;;;;6.78;2.58;;;14.50;99.90;;;15.37;100.00;101693.66;5124022;28;20046;-56
2022/09/20 07:32:33;;;;;;;5.70;2.30;;;14.90;99.90;;;15.52;100.00;101694.94;5126368;28;20412;-58
2022/09/20 07:35:07;;;;;;;5.70;1.85;;;15.10;99.90;;;15.64;100.00;101693.59;5121858;28;20058;-59
2022/09/20 07:37:41;;;;;;;6.20;2.22;;;15.20;99.90;;;15.67;100.00;101703.31;5126335;28;20570;-57
2022/09/20 07:40:14;;;;;;;6.65;2.20;;;15.30;99.90;;;15.60;100.00;101696.09;5125062;28;20416;-58
2022/09/20 07:42:47;;;;;;;8.27;2.30;;;15.30;99.90;;;15.53;100.00;101702.00;5127380;28;20050;-57
2022/09/20 07:45:20;;;;;;;3.90;1.80;;;15.30;99.90;;;15.45;100.00;101700.06;5126205;28;20090;-57
2022/09/20 07:47:53;;;;;;;5.00;1.80;;;15.20;99.90;;;15.41;100.00;101699.91;5127529;28;20047;-57
2022/09/20 07:50:25;;;;;;;4.07;1.73;;;15.10;99.90;;;15.59;100.00;101704.81;5125441;28;20122;-59
2022/09/20 07:52:58;;;;;;;4.22;1.85;;;15.30;99.90;;;16.06;100.00;101710.53;5126148;28;20042;-57
2022/09/20 07:55:30;;;;;;;6.18;2.08;;;15.50;99.90;;;16.53;100.00;101707.38;5127428;28;20463;-57
2022/09/20 07:58:02;;;;;;;6.15;1.80;;;15.90;99.90;;;16.78;100.00;101710.66;5127656;28;20043;-57
2022/09/20 08:00:35;;;;;;;4.93;1.95;;;16.20;99.90;;;16.84;100.00;101708.16;5127005;28;20058;-58
2022/09/20 08:03:08;;;;;;;6.25;1.50;;;16.30;99.90;;;17.06;100.00;101717.44;5127457;28;20402;-57
2022/09/20 08:05:40;;;;;;;4.50;1.60;;;16.50;99.90;;;17.47;100.00;101706.91;5127354;28;20105;-58
2022/09/20 08:08:12;;;;;;;5.03;1.50;;;16.70;99.90;;;17.66;100.00;101713.47;5121681;28;20044;-59
2022/09/20 08:10:46;;;;;;;4.35;1.50;;;16.90;99.90;;;17.99;100.00;101719.44;5124881;28;20540;-63
2022/09/20 08:13:18;;;;;;;3.38;1.50;;;17.10;99.90;;;18.05;98.47;101714.25;5124514;28;20079;-63
2022/09/20 08:15:51;;;;;;;4.20;1.23;;;17.30;99.90;;;17.95;98.05;101722.00;5127101;28;20046;-63
2022/09/20 08:18:24;;;;;;;5.05;1.55;;;17.20;99.90;;;18.02;98.96;101724.78;5109724;28;20039;-62
2022/09/20 08:20:56;;;;;;;4.55;1.58;;;17.30;99.90;;;18.72;97.21;101726.94;5106962;29;20043;-62
2022/09/20 08:23:28;;;;;;;6.07;1.67;;;17.60;99.90;;;19.85;92.81;101725.88;5107087;29;20491;-62
2022/09/20 08:26:01;;;;;;;5.75;1.50;;;18.20;99.90;;;21.05;87.67;101724.31;5116206;29;20075;-62
2022/09/20 08:28:34;;;;;;;2.83;1.10;;;19.10;99.90;;;21.08;82.33;101728.78;5124378;28;20571;-62
2022/09/20 08:31:09;;;;;;;3.72;1.17;;;19.40;98.10;;;20.58;82.63;101721.34;5126723;28;20438;-63
2022/09/20 08:33:43;;;;;;;6.97;1.20;;;19.30;97.30;;;20.02;84.02;101725.19;5126518;28;20098;-60
2022/09/20 08:36:18;;;;;;;4.75;1.15;;;19.10;97.20;;;20.06;83.65;101720.81;5118463;28;20047;-59
2022/09/20 08:38:50;;;;;;;3.20;0.88;;;19.00;97.10;;;20.70;82.32;101710.84;5126112;28;20046;-59
2022/09/20 08:41:27;;;;;;;4.30;1.20;;;19.30;96.80;;;21.92;78.97;101721.25;5126297;28;20051;-58
2022/09/20 08:44:03;;;;;;;4.50;1.00;;;20.10;96.00;;;22.61;74.06;101729.31;5126523;28;20070;-57
2022/09/20 08:46:42;;;;;;;3.90;1.20;;;20.80;93.80;;;22.92;72.93;101728.44;5126656;28;20047;-62
2022/09/20 08:49:21;;;;;;;4.22;0.98;;;21.20;92.50;;;23.47;71.66;101730.06;5118292;28;20051;-57
2022/09/20 08:51:56;;;;;;;4.00;1.23;;;21.70;91.40;;;23.89;70.60;101726.38;5116359;28;20404;-57
2022/09/20 08:54:34;;;;;;;4.07;1.48;;;22.20;90.50;;;24.07;68.78;101728.94;5123285;28;20717;-58
2022/09/20 08:57:15;;;;;;;3.58;0.77;;;22.50;87.70;;;23.89;67.66;101729.03;5123889;28;20039;-57
2022/09/20 08:59:47;;;;;;;3.20;1.00;;;22.50;84.30;;;23.60;67.59;101737.13;5125557;28;20043;-56
2022/09/20 09:02:22;;;;;;;3.33;1.38;;;22.50;83.00;;;22.80;68.14;101733.75;5125385;28;20047;-57
2022/09/20 09:04:54;;;;;;;4.95;1.30;;;22.00;82.00;;;22.02;69.60;101725.66;5125991;28;20051;-58
2022/09/20 09:07:28;;;;;;;4.18;0.90;;;21.40;82.40;;;21.15;71.86;101725.28;5126314;28;20043;-58
2022/09/20 09:10:01;;;;;;;2.83;0.90;;;20.80;83.90;;;20.54;74.33;101723.09;5125812;28;20043;-56
2022/09/20 09:12:35;;;;;;;3.45;1.00;;;20.20;86.10;;;20.06;76.49;101726.09;5125756;28;20532;-57
2022/09/20 09:15:25;;;;;;;5.18;1.02;;;19.70;88.30;;;19.53;78.67;101718.41;5125945;28;20383;-57
2022/09/20 09:17:59;;;;;;;6.50;1.10;;;19.20;90.20;;;19.06;79.74;101731.84;5125935;28;20051;-57
2022/09/20 09:20:42;;;;;;;4.70;1.13;;;18.80;90.70;;;18.66;81.41;101723.31;5125932;28;20120;-57
2022/09/20 09:23:25;;;;;;;3.08;1.05;;;18.50;91.60;;;18.35;82.54;101726.25;5125525;28;20401;-57
2022/09/20 09:25:59;;;;;;;2.60;1.00;;;18.10;92.30;;;18.13;83.50;101717.97;5125736;28;20114;-56
2022/09/20 09:28:35;;;;;;;2.85;0.95;;;17.90;92.90;;;18.01;84.69;101723.00;5125586;28;20051;-57
2022/09/20 09:31:24;;;;;;;2.75;1.02;;;17.70;93.50;;;17.93;85.76;101727.25;5125851;28;20470;-58
2022/09/20 09:33:58;;;;;;;4.20;1.08;;;17.60;94.10;;;17.86;85.87;101722.69;5125526;28;20110;-56
2022/09/20 09:36:32;;;;;;;3.03;1.00;;;17.50;94.40;;;17.79;86.68;101726.06;5125744;28;20639;-57
2022/09/20 09:39:24;;;;;;;2.13;1.10;;;17.50;94.80;;;17.75;87.08;101722.50;5125623;28;20123;-58
2022/09/20 09:41:59;;;;;;;5.88;1.20;;;17.40;95.00;;;17.71;87.43;101722.34;5125560;28;20051;-58
2022/09/20 09:44:32;;;;;;;2.42;1.00;;;17.40;95.20;;;17.60;87.06;101715.13;5125314;28;20051;-59
2022/09/20 09:47:23;;;;;;;3.30;1.00;;;17.30;95.20;;;17.54;87.52;101717.66;5125753;28;20053;-57
2022/09/20 09:49:59;;;;;;;4.95;1.10;;;17.20;95.40;;;17.48;88.24;101720.16;5125281;28;20508;-57
2022/09/20 09:52:32;;;;;;;2.85;0.90;;;17.20;95.70;;;17.37;87.68;101716.38;5124416;28;20045;-57
2022/09/20 09:55:05;;;;;;;1.50;0.82;;;17.10;95.30;;;17.19;87.42;101721.25;5125198;28;20105;-58
2022/09/20 09:57:50;;;;;;;3.00;0.60;;;17.00;95.20;;;17.01;87.56;101717.31;5125287;28;20047;-58
2022/09/20 10:00:26;;;;;;;3.67;1.17;;;16.80;95.20;;;16.93;87.74;101710.13;5123539;28;20059;-59
2022/09/20 10:03:41;;;;;;;2.97;0.85;;;16.70;95.40;;;16.83;87.86;101713.41;5124034;28;20110;-59
2022/09/20 10:06:24;;;;;;;3.05;0.73;;;16.70;95.50;;;16.79;88.21;101725.59;5105137;29;20052;-56
2022/09/20 10:09:21;;;;;;;3.45;0.70;;;16.60;95.70;;;16.70;88.90;101722.75;5116383;28;20142;-58
2022/09/20 10:12:20;;;;;;;2.40;0.90;;;16.50;95.90;;;16.64;89.70;101725.19;5181170;23;20052;-55
2022/09/20 10:15:09;;;;;;;2.60;0.80;;;16.50;96.30;;;16.60;90.03;101720.69;5124822;28;20058;-55
2022/09/20 10:17:57;;;;;;;2.90;1.10;;;16.40;96.50;;;16.59;92.30;101722.44;5123561;29;20051;-56
2022/09/20 10:20:45;;;;;;;0.82;0.60;;;16.40;97.00;;;16.62;92.34;101721.63;5124732;28;20484;-55
2022/09/20 10:23:39;;;;;;;3.65;1.20;;;16.40;97.40;;;16.60;91.67;101721.56;5124664;28;20051;-56
2022/09/20 10:26:21;;;;;;;;;;;16.40;97.20;;;16.56;91.44;101717.09;5125049;28;20055;-54
2022/09/20 10:29:07;;;;;;;3.15;0.65;;;16.40;97.10;;;16.51;91.08;101729.25;5124619;28;19926;-58
2022/09/20 10:31:55;;;;;;;4.05;1.08;;;16.30;97.00;;;16.48;91.27;101716.88;5124400;28;20079;-55
2022/09/20 10:35:13;;;;;;;1.35;0.82;;;16.30;97.10;;;16.44;92.28;101722.06;5124698;28;20051;-55
2022/09/20 10:38:04;;;;;;;2.53;0.73;;;16.30;97.30;;;16.37;92.87;101734.16;5119652;28;20055;-56
2022/09/20 10:43:56;;;;;;;1.95;0.80;;;16.20;98.50;;;16.38;96.05;101721.91;5112444;28;20063;-56
2022/09/20 10:46:44;;;;;;;2.75;1.13;;;16.20;98.90;;;16.40;97.09;101720.19;5124552;28;20051;-56
2022/09/20 10:49:27;;;;;;;3.30;0.95;;;16.20;99.30;;;16.35;97.01;101717.44;5124590;28;20035;-55
2022/09/20 10:52:30;;;;;;;5.50;1.60;;;16.10;99.40;;;16.31;97.02;101723.50;5124575;28;20051;-55
2022/09/20 10:55:20;;;;;;;3.42;1.02;;;16.10;99.40;;;16.28;97.24;101720.75;5104158;28;20079;-56
2022/09/20 10:58:40;;;;;;;2.42;1.13;;;16.10;99.60;;;16.25;97.53;101723.31;5124480;28;20039;-56
2022/09/20 11:01:19;;;;;;;4.53;1.48;;;16.00;99.70;;;16.31;97.92;101731.38;5123460;28;20621;-55
2022/09/20 11:04:09;;;;;;;4.82;1.20;;;16.10;99.90;;;16.37;98.24;101723.66;5123982;28;20051;-55
2022/09/20 11:06:51;;;;;;;3.03;0.93;;;16.10;99.90;;;16.47;98.41;101733.53;5124233;28;20043;-56
2022/09/20 11:09:31;;;;;;;2.90;1.00;;;16.20;99.90;;;16.59;98.29;101732.06;5123901;28;20054;-55
2022/09/20 11:12:11;;;;;;;1.92;0.90;;;16.20;99.90;;;16.70;97.26;101736.78;5123932;28;20110;-56
2022/09/20 11:14:50;;;;;;;2.90;0.90;;;16.30;99.90;;;16.85;96.88;101724.84;5124068;28;20508;-55
2022/09/20 11:17:27;;;;;;;2.00;1.27;;;16.40;99.90;;;17.07;96.09;101727.13;5123903;28;20062;-58
2022/09/20 11:20:05;;;;;;;2.42;0.70;;;16.60;99.70;;;17.25;95.20;101721.38;5123759;28;20040;-54
2022/09/20 11:22:43;;;;;;;1.95;0.70;;;16.80;99.40;;;17.54;94.78;101720.28;5123891;28;20423;-57
2022/09/20 11:25:19;;;;;;;2.05;0.88;;;17.00;99.30;;;17.75;92.91;101719.84;5123840;28;20087;-64